Time;durP1;ratioP1;P1;durP2;ratioP2;P2;SDS_P1;SDS_P2;PMS_P1;PMS_P2;Temp;Humidity;BMP_temperature;BMP_pressure;BME280_temperature;BME280_humidity;BME280_pressure;Samples;Min_cycle;Max_cycle;Signal;HPM_P1;HPM_P2
2020/12/01 06:43:49;;;;;;;18.10;12.63;;;1.20;86.80;;;;;;4977768;28;20799;-70
2020/12/01 06:46:57;;;;;;;18.58;11.40;;;2.10;90.10;;;;;;4948070;28;20360;-73
2020/12/01 06:49:29;;;;;;;14.65;9.60;;;2.00;89.60;;;;;;4911943;28;20653;-71
2020/12/01 06:52:22;;;;;;;12.85;9.13;;;2.00;90.00;;;;;;4917418;28;20372;-70
2020/12/01 06:54:51;;;;;;;16.27;9.32;;;2.00;90.10;;;;;;4947897;28;20603;-68
2020/12/01 06:57:23;;;;;;;16.33;10.48;;;2.00;90.20;;;;;;4961062;28;20503;-68
2020/12/01 06:59:48;;;;;;;14.35;9.57;;;2.00;90.20;;;;;;4959810;28;20412;-68
2020/12/01 07:02:38;;;;;;;13.82;9.60;;;1.90;90.10;;;;;;4962492;28;20045;-70
2020/12/01 07:05:40;;;;;;;16.42;10.32;;;1.90;90.00;;;;;;4953364;28;20068;-71
2020/12/01 07:08:25;;;;;;;15.40;9.75;;;1.90;90.10;;;;;;4952229;28;20823;-67
2020/12/01 07:11:02;;;;;;;12.73;8.57;;;1.90;90.40;;;;;;4952401;28;20268;-72
2020/12/01 07:13:47;;;;;;;11.77;8.23;;;1.90;90.40;;;;;;4951507;28;20702;-69
2020/12/01 07:16:35;;;;;;;14.55;9.02;;;2.00;90.60;;;;;;4947675;28;20515;-71
2020/12/01 07:19:13;;;;;;;13.07;7.90;;;2.00;90.50;;;;;;4942945;28;20385;-71
2020/12/01 07:22:10;;;;;;;12.88;8.23;;;2.00;90.60;;;;;;4947257;28;20055;-70
2020/12/01 07:25:25;;;;;;;12.50;7.25;;;2.10;90.60;;;;;;4947430;28;20360;-69
2020/12/01 07:28:27;;;;;;;11.68;7.43;;;2.20;90.40;;;;;;4907533;28;20435;-73
2020/12/01 07:31:04;;;;;;;15.30;8.68;;;2.30;90.60;;;;;;4908534;28;20605;-73
2020/12/01 07:33:35;;;;;;;12.27;8.30;;;2.40;90.70;;;;;;4893086;28;20692;-68
2020/12/01 07:36:23;;;;;;;14.30;9.15;;;2.40;90.60;;;;;;4918414;28;20808;-71
2020/12/01 07:38:51;;;;;;;13.40;9.30;;;2.40;90.50;;;;;;4939467;28;20525;-69
2020/12/01 07:41:24;;;;;;;14.43;8.88;;;2.40;90.60;;;;;;4945362;28;20777;-69
2020/12/01 07:44:03;;;;;;;16.10;10.20;;;2.40;90.60;;;;;;4938505;28;20967;-68
2020/12/01 07:49:19;;;;;;;16.02;11.48;;;2.40;90.60;;;;;;4942285;28;20468;-77
2020/12/01 07:51:47;;;;;;;15.68;9.70;;;2.40;90.40;;;;;;4956548;28;20492;-72
2020/12/01 08:13:09;;;;;;;;;;;;;;;;;;;;;
2020/12/01 09:15:25;;;;;;;;;;;;;;;;;;;;;
2020/12/01 09:22:34;;;;;;;;;;;;;;;;;;;;;
2020/12/01 09:36:56;;;;;;;;;;;;;;;;;;;;;
2020/12/01 09:47:00;;;;;;;;;;;;;;;;;;;;;
2020/12/01 10:35:37;;;;;;;36.38;17.90;;;3.80;90.30;;;;;;5910730;23;21081;-67
2020/12/01 10:42:36;;;;;;;38.30;18.88;;;3.90;90.40;;;;;;6012707;23;20482;-69
2020/12/01 10:45:33;;;;;;;34.60;18.88;;;3.80;90.30;;;;;;6090083;23;20283;-71
2020/12/01 10:48:31;;;;;;;;;;;;;;;;;;;;;
2020/12/01 10:51:08;;;;;;;32.35;17.95;;;3.90;90.30;;;;;;6137377;23;20106;-70
2020/12/01 10:53:49;;;;;;;29.45;16.15;;;3.90;90.30;;;;;;6133127;23;20440;-68
2020/12/01 10:56:45;;;;;;;33.45;18.23;;;3.90;90.30;;;;;;6102690;23;20418;-68
2020/12/01 10:59:11;;;;;;;31.08;18.98;;;4.00;90.00;;;;;;6108979;23;20566;-68
2020/12/01 11:01:56;;;;;;;37.20;21.85;;;4.00;90.30;;;;;;6133994;23;20419;-67
2020/12/01 11:04:22;;;;;;;;;;;4.00;90.00;;;;;;6135461;23;20401;-69
2020/12/01 11:06:49;;;;;;;35.58;19.35;;;4.00;88.40;;;;;;6130384;23;20585;-67
2020/12/01 11:09:20;;;;;;;35.67;20.08;;;4.00;90.10;;;;;;6102933;23;20435;-68
2020/12/01 11:11:57;;;;;;;36.67;19.25;;;4.00;90.20;;;;;;6099156;23;20035;-70
2020/12/01 11:14:26;;;;;;;32.33;16.90;;;4.00;90.20;;;;;;6099589;23;20070;-69
2020/12/01 11:16:58;;;;;;;28.23;15.45;;;4.00;90.10;;;;;;6122175;23;20494;-68
2020/12/01 11:19:30;;;;;;;25.23;14.32;;;4.00;90.10;;;;;;6101370;23;20389;-67
2020/12/01 11:21:56;;;;;;;31.13;13.50;;;4.00;90.00;;;;;;6101039;23;20710;-64
2020/12/01 11:24:23;;;;;;;23.50;13.07;;;3.90;90.10;;;;;;6118454;23;20028;-69
2020/12/01 11:26:56;;;;;;;21.98;12.77;;;3.90;90.10;;;;;;6071431;23;20270;-65
2020/12/01 11:29:24;;;;;;;25.58;12.90;;;3.80;90.00;;;;;;6078071;23;20512;-68
2020/12/01 11:31:50;;;;;;;21.92;12.05;;;3.80;90.10;;;;;;6067299;23;20435;-68
2020/12/01 11:34:16;;;;;;;25.35;13.05;;;3.80;90.10;;;;;;6116533;23;20745;-69
2020/12/01 11:36:41;;;;;;;23.45;12.43;;;3.70;90.00;;;;;;6118175;23;20396;-73
2020/12/01 11:39:15;;;;;;;23.45;12.60;;;3.70;90.20;;;;;;6092899;23;20573;-72
2020/12/01 11:41:49;;;;;;;26.98;14.32;;;3.70;90.20;;;;;;6119239;23;20567;-73
2020/12/01 11:44:15;;;;;;;24.90;14.20;;;3.70;90.20;;;;;;6093685;23;20104;-69
2020/12/01 11:46:42;;;;;;;31.50;16.60;;;3.60;90.20;;;;;;6094810;23;20017;-74
2020/12/01 11:49:10;;;;;;;33.13;16.63;;;3.60;90.20;;;;;;6126116;23;20424;-68
2020/12/01 11:51:37;;;;;;;32.78;16.88;;;3.60;90.20;;;;;;6129497;23;20468;-69
2020/12/01 11:54:10;;;;;;;33.70;16.50;;;3.60;90.30;;;;;;6124643;23;20352;-70
2020/12/01 11:56:37;;;;;;;32.45;17.00;;;3.70;90.40;;;;;;6079476;23;20289;-67
2020/12/01 11:59:06;;;;;;;40.58;20.70;;;3.70;90.30;;;;;;6117202;23;20490;-65
2020/12/01 12:01:35;;;;;;;43.72;20.85;;;3.80;90.40;;;;;;6117539;23;20360;-63
2020/12/01 12:04:17;;;;;;;51.65;22.92;;;3.80;90.40;;;;;;6094142;23;20313;-66
2020/12/01 12:06:48;;;;;;;41.63;20.73;;;3.80;90.30;;;;;;6066679;23;20123;-63
2020/12/01 12:09:17;;;;;;;38.10;18.75;;;3.80;90.30;;;;;;6112828;23;20433;-61
2020/12/01 12:11:43;;;;;;;35.90;19.15;;;3.80;90.30;;;;;;6097406;23;20293;-63
2020/12/01 12:14:09;;;;;;;34.38;16.73;;;3.70;90.30;;;;;;6094776;23;20297;-65
2020/12/01 12:16:35;;;;;;;34.50;18.85;;;3.70;90.40;;;;;;6090332;23;20559;-66
2020/12/01 12:19:01;;;;;;;36.58;18.13;;;3.70;90.50;;;;;;6128792;23;20053;-62
2020/12/01 12:21:30;;;;;;;33.42;17.67;;;3.70;90.50;;;;;;6119010;23;20463;-64
2020/12/01 12:23:56;;;;;;;33.30;16.70;;;3.80;90.50;;;;;;6060649;23;20671;-62
2020/12/01 12:26:22;;;;;;;33.17;18.42;;;3.70;90.40;;;;;;6061354;23;20339;-61
2020/12/01 12:28:48;;;;;;;32.65;17.10;;;3.80;90.50;;;;;;6107572;23;20016;-64
2020/12/01 12:31:16;;;;;;;34.80;18.58;;;3.80;90.40;;;;;;6091675;23;20353;-63
2020/12/01 12:33:43;;;;;;;32.47;17.58;;;3.80;90.40;;;;;;6098319;23;20278;-62
2020/12/01 12:36:10;;;;;;;35.58;18.02;;;3.80;90.40;;;;;;6109590;23;20414;-64
2020/12/01 12:38:55;;;;;;;32.60;16.60;;;3.80;90.40;;;;;;6129272;23;20324;-68
2020/12/01 12:41:20;;;;;;;35.33;18.67;;;3.80;90.20;;;;;;6112706;23;20017;-68
2020/12/01 12:43:46;;;;;;;42.22;19.45;;;3.80;90.40;;;;;;6125647;23;20389;-75
2020/12/01 12:46:18;;;;;;;35.15;17.10;;;3.80;90.40;;;;;;6132282;23;20446;-71
2020/12/01 12:48:44;;;;;;;37.78;17.27;;;3.80;90.40;;;;;;6133645;23;20012;-65
2020/12/01 12:51:09;;;;;;;34.78;17.77;;;3.80;90.40;;;;;;6130641;23;20392;-71
2020/12/01 12:53:35;;;;;;;34.40;18.55;;;3.70;90.30;;;;;;6128691;23;20467;-68
2020/12/01 12:56:01;;;;;;;38.47;19.85;;;3.70;90.30;;;;;;6102525;23;20075;-66
2020/12/01 12:58:27;;;;;;;34.90;17.88;;;3.70;90.40;;;;;;6104616;23;20412;-67
2020/12/01 13:00:53;;;;;;;36.05;18.65;;;3.70;90.30;;;;;;6130948;23;20462;-72
2020/12/01 13:03:19;;;;;;;35.80;19.48;;;3.70;90.30;;;;;;6102368;23;20448;-69
2020/12/01 13:05:45;;;;;;;33.53;17.55;;;3.70;90.40;;;;;;6104846;23;20397;-70
2020/12/01 13:08:11;;;;;;;38.08;19.65;;;3.70;90.40;;;;;;6072743;23;20322;-68
2020/12/01 13:10:37;;;;;;;38.60;19.17;;;3.70;90.30;;;;;;6108128;23;20035;-67
2020/12/01 13:13:03;;;;;;;40.83;20.00;;;3.70;90.40;;;;;;6134126;23;20009;-65
2020/12/01 13:15:29;;;;;;;37.70;19.15;;;3.80;90.40;;;;;;6129764;23;20579;-66
2020/12/01 13:17:54;;;;;;;36.00;18.45;;;3.70;90.20;;;;;;6136299;23;20293;-64
2020/12/01 13:20:30;;;;;;;38.13;17.67;;;3.70;90.30;;;;;;6103077;23;20243;-68
2020/12/01 13:22:56;;;;;;;39.30;19.17;;;3.70;90.20;;;;;;6097786;23;20016;-69
2020/12/01 13:25:22;;;;;;;43.35;20.98;;;3.60;90.20;;;;;;6107220;23;20012;-66
2020/12/01 13:27:48;;;;;;;39.97;19.75;;;3.60;90.30;;;;;;6109848;23;20419;-64
2020/12/01 13:30:15;;;;;;;38.80;19.08;;;3.60;90.30;;;;;;6133257;23;20501;-66
2020/12/01 13:32:41;;;;;;;39.30;20.05;;;3.60;90.30;;;;;;6134330;23;20203;-64
2020/12/01 13:35:08;;;;;;;51.42;22.80;;;3.60;90.30;;;;;;6089570;23;20063;-67
2020/12/01 13:37:34;;;;;;;68.38;30.02;;;3.60;90.30;;;;;;6085922;23;20048;-65
2020/12/01 13:40:03;;;;;;;68.18;31.73;;;3.60;90.20;;;;;;6114600;23;20388;-65
2020/12/01 13:42:29;;;;;;;64.15;28.65;;;3.60;90.20;;;;;;6096385;23;20383;-66
2020/12/01 13:44:54;;;;;;;59.50;28.75;;;3.60;90.20;;;;;;6093911;23;20028;-64
2020/12/01 13:47:20;;;;;;;54.10;29.23;;;3.50;90.10;;;;;;6084279;23;20036;-64
2020/12/01 13:49:49;;;;;;;47.20;24.85;;;3.50;90.20;;;;;;6125998;23;20455;-65
2020/12/01 13:52:15;;;;;;;45.55;25.85;;;3.50;90.20;;;;;;6116179;23;20066;-64
2020/12/01 13:55:03;;;;;;;38.42;20.42;;;3.50;90.10;;;;;;6101941;23;20412;-65
2020/12/01 13:57:29;;;;;;;45.75;23.95;;;3.50;90.10;;;;;;6131655;23;20425;-65
2020/12/01 13:59:54;;;;;;;37.50;19.92;;;3.50;90.10;;;;;;6105726;23;20294;-65
2020/12/01 14:02:20;;;;;;;41.10;22.00;;;3.40;90.10;;;;;;6125037;23;20308;-64
2020/12/01 14:04:46;;;;;;;40.58;20.80;;;3.50;90.10;;;;;;6133873;23;20271;-63
2020/12/01 14:07:12;;;;;;;38.13;21.60;;;3.50;90.10;;;;;;6110750;23;20008;-64
2020/12/01 14:09:37;;;;;;;33.28;19.85;;;3.50;90.10;;;;;;6135778;23;20296;-64
2020/12/01 14:12:03;;;;;;;34.17;19.23;;;3.50;90.10;;;;;;6131235;23;20765;-63
